sensor_id;sensor_type;location;lat;lon;timestamp;temperature;humidity
67899;DHT22;54699;51.796;10.956;2022-12-07T00:01:04;15.80;51.40
67899;DHT22;54699;51.796;10.956;2022-12-07T00:03:32;15.80;51.40
67899;DHT22;54699;51.796;10.956;2022-12-07T00:06:00;15.80;51.40
67899;DHT22;54699;51.796;10.956;2022-12-07T00:08:28;15.80;51.40
67899;DHT22;54699;51.796;10.956;2022-12-07T00:10:55;15.80;52.30
67899;DHT22;54699;51.796;10.956;2022-12-07T00:13:21;15.80;51.50
67899;DHT22;54699;51.796;10.956;2022-12-07T00:15:50;15.80;51.60
67899;DHT22;54699;51.796;10.956;2022-12-07T00:18:16;15.80;51.50
67899;DHT22;54699;51.796;10.956;2022-12-07T00:20:43;15.80;51.40
67899;DHT22;54699;51.796;10.956;2022-12-07T00:23:10;15.80;51.40
67899;DHT22;54699;51.796;10.956;2022-12-07T00:25:37;15.80;51.40
67899;DHT22;54699;51.796;10.956;2022-12-07T00:28:04;15.80;51.40
67899;DHT22;54699;51.796;10.956;2022-12-07T00:30:32;15.80;51.40
67899;DHT22;54699;51.796;10.956;2022-12-07T00:33:00;15.80;51.40
67899;DHT22;54699;51.796;10.956;2022-12-07T00:35:27;15.80;51.40
67899;DHT22;54699;51.796;10.956;2022-12-07T00:37:54;15.80;51.40
67899;DHT22;54699;51.796;10.956;2022-12-07T00:40:21;15.80;51.40
67899;DHT22;54699;51.796;10.956;2022-12-07T00:42:47;15.80;51.40
67899;DHT22;54699;51.796;10.956;2022-12-07T00:45:14;15.80;51.40
67899;DHT22;54699;51.796;10.956;2022-12-07T00:47:41;15.80;51.40
67899;DHT22;54699;51.796;10.956;2022-12-07T00:50:09;15.80;51.40
67899;DHT22;54699;51.796;10.956;2022-12-07T00:52:36;15.80;51.40
67899;DHT22;54699;51.796;10.956;2022-12-07T00:55:03;15.80;51.30
67899;DHT22;54699;51.796;10.956;2022-12-07T00:57:31;15.80;51.30
67899;DHT22;54699;51.796;10.956;2022-12-07T01:00:00;15.80;51.30
67899;DHT22;54699;51.796;10.956;2022-12-07T01:02:27;15.80;51.40
67899;DHT22;54699;51.796;10.956;2022-12-07T01:04:54;15.80;51.30
67899;DHT22;54699;51.796;10.956;2022-12-07T01:07:23;15.80;51.40
67899;DHT22;54699;51.796;10.956;2022-12-07T01:09:51;15.70;51.40
67899;DHT22;54699;51.796;10.956;2022-12-07T01:12:18;15.80;51.30
67899;DHT22;54699;51.796;10.956;2022-12-07T01:14:45;15.80;51.30
67899;DHT22;54699;51.796;10.956;2022-12-07T01:17:11;15.80;51.60
67899;DHT22;54699;51.796;10.956;2022-12-07T01:19:38;15.80;51.40
67899;DHT22;54699;51.796;10.956;2022-12-07T01:22:05;15.80;51.30
67899;DHT22;54699;51.796;10.956;2022-12-07T01:24:33;15.70;51.30
67899;DHT22;54699;51.796;10.956;2022-12-07T01:27:00;15.70;51.40
67899;DHT22;54699;51.796;10.956;2022-12-07T01:29:27;15.70;51.30
67899;DHT22;54699;51.796;10.956;2022-12-07T01:31:54;15.70;51.30
67899;DHT22;54699;51.796;10.956;2022-12-07T01:34:20;15.70;51.20
67899;DHT22;54699;51.796;10.956;2022-12-07T01:36:47;15.70;51.30
67899;DHT22;54699;51.796;10.956;2022-12-07T01:39:14;15.80;51.30
67899;DHT22;54699;51.796;10.956;2022-12-07T01:41:42;15.70;51.30
67899;DHT22;54699;51.796;10.956;2022-12-07T01:44:14;15.80;51.20
67899;DHT22;54699;51.796;10.956;2022-12-07T01:46:47;15.70;51.20
67899;DHT22;54699;51.796;10.956;2022-12-07T01:52:07;15.70;51.30
67899;DHT22;54699;51.796;10.956;2022-12-07T01:54:41;15.80;51.30
67899;DHT22;54699;51.796;10.956;2022-12-07T01:57:10;15.70;51.20
67899;DHT22;54699;51.796;10.956;2022-12-07T01:59:39;15.70;51.20
67899;DHT22;54699;51.796;10.956;2022-12-07T02:02:10;15.70;51.20
67899;DHT22;54699;51.796;10.956;2022-12-07T02:04:40;15.70;51.20
67899;DHT22;54699;51.796;10.956;2022-12-07T02:07:06;15.70;51.20
67899;DHT22;54699;51.796;10.956;2022-12-07T02:09:36;15.70;51.30
67899;DHT22;54699;51.796;10.956;2022-12-07T02:12:03;15.70;51.10
67899;DHT22;54699;51.796;10.956;2022-12-07T02:14:32;15.70;51.10
67899;DHT22;54699;51.796;10.956;2022-12-07T02:17:02;15.70;51.10
67899;DHT22;54699;51.796;10.956;2022-12-07T02:19:46;15.70;51.20
67899;DHT22;54699;51.796;10.956;2022-12-07T02:22:33;15.70;51.10
67899;DHT22;54699;51.796;10.956;2022-12-07T02:25:21;15.70;51.20
67899;DHT22;54699;51.796;10.956;2022-12-07T02:27:56;15.70;51.10
67899;DHT22;54699;51.796;10.956;2022-12-07T02:30:33;15.70;51.20
67899;DHT22;54699;51.796;10.956;2022-12-07T02:33:07;15.70;51.10
67899;DHT22;54699;51.796;10.956;2022-12-07T02:35:42;15.70;51.10
67899;DHT22;54699;51.796;10.956;2022-12-07T02:38:14;15.70;51.10
67899;DHT22;54699;51.796;10.956;2022-12-07T02:40:46;15.70;51.10
67899;DHT22;54699;51.796;10.956;2022-12-07T02:43:19;15.70;51.10
67899;DHT22;54699;51.796;10.956;2022-12-07T02:45:52;15.70;51.10
67899;DHT22;54699;51.796;10.956;2022-12-07T02:48:23;15.70;51.10
67899;DHT22;54699;51.796;10.956;2022-12-07T02:50:52;15.70;51.10
67899;DHT22;54699;51.796;10.956;2022-12-07T02:53:33;15.70;51.00
67899;DHT22;54699;51.796;10.956;2022-12-07T02:56:01;15.70;51.10
67899;DHT22;54699;51.796;10.956;2022-12-07T02:58:37;15.70;51.10
67899;DHT22;54699;51.796;10.956;2022-12-07T03:01:18;15.70;51.10
67899;DHT22;54699;51.796;10.956;2022-12-07T03:03:56;15.70;51.00
67899;DHT22;54699;51.796;10.956;2022-12-07T03:06:31;15.70;51.10
67899;DHT22;54699;51.796;10.956;2022-12-07T03:09:05;15.70;51.00
67899;DHT22;54699;51.796;10.956;2022-12-07T03:11:55;15.70;51.10
67899;DHT22;54699;51.796;10.956;2022-12-07T03:14:28;15.70;51.00
67899;DHT22;54699;51.796;10.956;2022-12-07T03:16:59;15.70;51.10
67899;DHT22;54699;51.796;10.956;2022-12-07T03:19:32;15.70;51.10
67899;DHT22;54699;51.796;10.956;2022-12-07T03:22:02;15.70;51.00
67899;DHT22;54699;51.796;10.956;2022-12-07T03:24:33;15.70;51.00
67899;DHT22;54699;51.796;10.956;2022-12-07T03:27:07;15.70;51.10
67899;DHT22;54699;51.796;10.956;2022-12-07T03:29:40;15.70;51.00
67899;DHT22;54699;51.796;10.956;2022-12-07T03:32:11;15.70;51.00
67899;DHT22;54699;51.796;10.956;2022-12-07T03:34:44;15.70;51.90
67899;DHT22;54699;51.796;10.956;2022-12-07T03:37:17;15.70;51.00
67899;DHT22;54699;51.796;10.956;2022-12-07T03:39:49;15.70;51.00
67899;DHT22;54699;51.796;10.956;2022-12-07T03:42:29;15.70;51.00
67899;DHT22;54699;51.796;10.956;2022-12-07T03:44:57;15.70;51.00
67899;DHT22;54699;51.796;10.956;2022-12-07T03:47:26;15.70;51.10
67899;DHT22;54699;51.796;10.956;2022-12-07T03:49:58;15.70;51.10
67899;DHT22;54699;51.796;10.956;2022-12-07T03:52:30;15.70;51.00
67899;DHT22;54699;51.796;10.956;2022-12-07T03:55:03;15.70;51.00
67899;DHT22;54699;51.796;10.956;2022-12-07T03:57:36;15.70;51.10
67899;DHT22;54699;51.796;10.956;2022-12-07T04:00:07;15.70;51.00
67899;DHT22;54699;51.796;10.956;2022-12-07T04:02:36;15.70;51.00
67899;DHT22;54699;51.796;10.956;2022-12-07T04:05:03;15.70;51.00
67899;DHT22;54699;51.796;10.956;2022-12-07T04:07:33;15.70;51.00
67899;DHT22;54699;51.796;10.956;2022-12-07T04:10:00;15.70;50.90
67899;DHT22;54699;51.796;10.956;2022-12-07T04:12:27;15.70;50.90
67899;DHT22;54699;51.796;10.956;2022-12-07T04:14:55;15.70;51.00
67899;DHT22;54699;51.796;10.956;2022-12-07T04:17:22;15.70;50.90
67899;DHT22;54699;51.796;10.956;2022-12-07T04:19:49;15.70;50.90
67899;DHT22;54699;51.796;10.956;2022-12-07T04:22:16;15.70;50.90
67899;DHT22;54699;51.796;10.956;2022-12-07T04:24:43;15.70;50.90
67899;DHT22;54699;51.796;10.956;2022-12-07T04:27:10;15.70;50.90
67899;DHT22;54699;51.796;10.956;2022-12-07T04:29:36;15.70;51.00
67899;DHT22;54699;51.796;10.956;2022-12-07T04:32:05;15.70;50.90
67899;DHT22;54699;51.796;10.956;2022-12-07T04:34:32;15.70;50.90
67899;DHT22;54699;51.796;10.956;2022-12-07T04:36:58;15.70;50.80
67899;DHT22;54699;51.796;10.956;2022-12-07T04:39:26;15.70;51.00
67899;DHT22;54699;51.796;10.956;2022-12-07T04:41:55;15.70;50.80
67899;DHT22;54699;51.796;10.956;2022-12-07T04:44:23;15.70;50.80
67899;DHT22;54699;51.796;10.956;2022-12-07T04:46:51;15.70;50.80
67899;DHT22;54699;51.796;10.956;2022-12-07T04:49:20;15.70;50.80
67899;DHT22;54699;51.796;10.956;2022-12-07T04:51:47;15.60;50.80
67899;DHT22;54699;51.796;10.956;2022-12-07T04:54:14;15.70;50.90
67899;DHT22;54699;51.796;10.956;2022-12-07T04:56:42;15.60;50.80
67899;DHT22;54699;51.796;10.956;2022-12-07T04:59:09;15.70;50.80
67899;DHT22;54699;51.796;10.956;2022-12-07T05:01:37;15.70;50.70
67899;DHT22;54699;51.796;10.956;2022-12-07T05:04:04;15.70;50.70
67899;DHT22;54699;51.796;10.956;2022-12-07T05:06:32;15.70;50.70
67899;DHT22;54699;51.796;10.956;2022-12-07T05:08:59;15.80;50.70
67899;DHT22;54699;51.796;10.956;2022-12-07T05:11:28;15.80;50.50
67899;DHT22;54699;51.796;10.956;2022-12-07T05:14:04;15.80;50.40
67899;DHT22;54699;51.796;10.956;2022-12-07T05:16:32;15.80;50.10
67899;DHT22;54699;51.796;10.956;2022-12-07T05:18:59;15.90;50.00
67899;DHT22;54699;51.796;10.956;2022-12-07T05:21:26;15.90;49.80
67899;DHT22;54699;51.796;10.956;2022-12-07T05:23:54;15.90;50.20
67899;DHT22;54699;51.796;10.956;2022-12-07T05:26:21;16.00;48.80
67899;DHT22;54699;51.796;10.956;2022-12-07T05:28:49;15.90;46.00
67899;DHT22;54699;51.796;10.956;2022-12-07T05:31:17;15.90;48.10
67899;DHT22;54699;51.796;10.956;2022-12-07T05:33:43;16.10;49.10
67899;DHT22;54699;51.796;10.956;2022-12-07T05:36:10;16.10;48.70
67899;DHT22;54699;51.796;10.956;2022-12-07T05:38:37;16.10;48.20
67899;DHT22;54699;51.796;10.956;2022-12-07T05:41:06;16.20;48.00
67899;DHT22;54699;51.796;10.956;2022-12-07T05:43:53;16.20;48.00
67899;DHT22;54699;51.796;10.956;2022-12-07T05:46:20;16.10;46.20
67899;DHT22;54699;51.796;10.956;2022-12-07T05:48:47;16.00;44.80
67899;DHT22;54699;51.796;10.956;2022-12-07T05:51:14;15.90;45.10
67899;DHT22;54699;51.796;10.956;2022-12-07T05:53:41;15.90;44.90
67899;DHT22;54699;51.796;10.956;2022-12-07T05:56:09;16.00;45.10
67899;DHT22;54699;51.796;10.956;2022-12-07T05:58:36;16.10;45.60
67899;DHT22;54699;51.796;10.956;2022-12-07T06:01:21;16.10;44.80
67899;DHT22;54699;51.796;10.956;2022-12-07T06:03:48;15.90;46.00
67899;DHT22;54699;51.796;10.956;2022-12-07T06:06:16;16.10;46.20
67899;DHT22;54699;51.796;10.956;2022-12-07T06:08:43;16.20;46.00
67899;DHT22;54699;51.796;10.956;2022-12-07T06:11:12;16.20;44.80
67899;DHT22;54699;51.796;10.956;2022-12-07T06:13:57;16.10;44.70
67899;DHT22;54699;51.796;10.956;2022-12-07T06:16:24;16.10;45.90
67899;DHT22;54699;51.796;10.956;2022-12-07T06:18:51;16.20;46.40
67899;DHT22;54699;51.796;10.956;2022-12-07T06:21:18;16.20;46.40
67899;DHT22;54699;51.796;10.956;2022-12-07T06:23:48;16.30;46.20
67899;DHT22;54699;51.796;10.956;2022-12-07T06:26:16;16.30;46.10
67899;DHT22;54699;51.796;10.956;2022-12-07T06:28:43;16.40;46.10
67899;DHT22;54699;51.796;10.956;2022-12-07T06:31:10;16.30;45.50
67899;DHT22;54699;51.796;10.956;2022-12-07T06:33:37;16.30;45.70
67899;DHT22;54699;51.796;10.956;2022-12-07T06:36:04;16.30;45.70
67899;DHT22;54699;51.796;10.956;2022-12-07T06:38:31;16.30;44.90
67899;DHT22;54699;51.796;10.956;2022-12-07T06:40:58;16.20;45.30
67899;DHT22;54699;51.796;10.956;2022-12-07T06:43:26;16.10;45.20
67899;DHT22;54699;51.796;10.956;2022-12-07T06:45:53;16.20;45.60
67899;DHT22;54699;51.796;10.956;2022-12-07T06:48:20;16.30;45.20
67899;DHT22;54699;51.796;10.956;2022-12-07T06:50:48;16.20;45.80
67899;DHT22;54699;51.796;10.956;2022-12-07T06:53:15;16.30;46.20
67899;DHT22;54699;51.796;10.956;2022-12-07T06:55:42;16.20;46.60
67899;DHT22;54699;51.796;10.956;2022-12-07T06:58:09;16.30;46.40
67899;DHT22;54699;51.796;10.956;2022-12-07T07:00:38;16.30;46.30
67899;DHT22;54699;51.796;10.956;2022-12-07T07:03:06;16.20;45.80
67899;DHT22;54699;51.796;10.956;2022-12-07T07:05:33;16.20;45.00
67899;DHT22;54699;51.796;10.956;2022-12-07T07:08:00;16.30;45.70
67899;DHT22;54699;51.796;10.956;2022-12-07T07:10:27;16.30;45.90
67899;DHT22;54699;51.796;10.956;2022-12-07T07:12:55;16.50;46.00
67899;DHT22;54699;51.796;10.956;2022-12-07T07:15:27;16.50;46.00
67899;DHT22;54699;51.796;10.956;2022-12-07T07:17:56;16.60;45.70
67899;DHT22;54699;51.796;10.956;2022-12-07T07:20:23;16.70;45.40
67899;DHT22;54699;51.796;10.956;2022-12-07T07:22:50;16.80;45.30
67899;DHT22;54699;51.796;10.956;2022-12-07T07:25:22;16.80;45.30
67899;DHT22;54699;51.796;10.956;2022-12-07T07:27:49;16.80;45.40
67899;DHT22;54699;51.796;10.956;2022-12-07T07:30:17;16.80;45.50
67899;DHT22;54699;51.796;10.956;2022-12-07T07:32:44;16.80;45.60
67899;DHT22;54699;51.796;10.956;2022-12-07T07:35:12;16.70;45.50
67899;DHT22;54699;51.796;10.956;2022-12-07T07:37:40;16.70;45.60
67899;DHT22;54699;51.796;10.956;2022-12-07T07:40:07;16.60;45.50
67899;DHT22;54699;51.796;10.956;2022-12-07T07:42:37;16.70;45.90
67899;DHT22;54699;51.796;10.956;2022-12-07T07:45:04;16.70;45.80
67899;DHT22;54699;51.796;10.956;2022-12-07T07:47:37;16.70;46.10
67899;DHT22;54699;51.796;10.956;2022-12-07T07:50:07;16.40;45.70
67899;DHT22;54699;51.796;10.956;2022-12-07T07:52:36;16.60;46.20
67899;DHT22;54699;51.796;10.956;2022-12-07T07:55:04;16.60;46.30
67899;DHT22;54699;51.796;10.956;2022-12-07T07:57:33;16.50;46.20
67899;DHT22;54699;51.796;10.956;2022-12-07T08:00:01;16.60;46.80
67899;DHT22;54699;51.796;10.956;2022-12-07T08:02:29;16.60;46.70
67899;DHT22;54699;51.796;10.956;2022-12-07T08:04:56;16.60;46.60
67899;DHT22;54699;51.796;10.956;2022-12-07T08:07:30;16.60;46.60
67899;DHT22;54699;51.796;10.956;2022-12-07T08:09:59;16.50;46.50
67899;DHT22;54699;51.796;10.956;2022-12-07T08:12:26;16.60;46.70
67899;DHT22;54699;51.796;10.956;2022-12-07T08:14:59;16.50;46.60
67899;DHT22;54699;51.796;10.956;2022-12-07T08:17:34;16.50;46.70
67899;DHT22;54699;51.796;10.956;2022-12-07T08:20:01;16.50;46.70
67899;DHT22;54699;51.796;10.956;2022-12-07T08:22:27;16.50;46.70
67899;DHT22;54699;51.796;10.956;2022-12-07T08:24:54;16.50;46.70
67899;DHT22;54699;51.796;10.956;2022-12-07T08:27:23;16.50;46.80
67899;DHT22;54699;51.796;10.956;2022-12-07T08:29:52;16.50;46.80
67899;DHT22;54699;51.796;10.956;2022-12-07T08:32:22;16.50;46.90
67899;DHT22;54699;51.796;10.956;2022-12-07T08:34:52;16.60;47.00
67899;DHT22;54699;51.796;10.956;2022-12-07T08:37:22;16.30;47.10
67899;DHT22;54699;51.796;10.956;2022-12-07T08:39:49;16.50;47.20
67899;DHT22;54699;51.796;10.956;2022-12-07T08:42:17;16.50;47.30
67899;DHT22;54699;51.796;10.956;2022-12-07T08:44:46;16.60;47.10
67899;DHT22;54699;51.796;10.956;2022-12-07T08:47:23;16.70;47.20
67899;DHT22;54699;51.796;10.956;2022-12-07T08:49:56;16.80;47.50
67899;DHT22;54699;51.796;10.956;2022-12-07T08:52:28;16.90;47.10
67899;DHT22;54699;51.796;10.956;2022-12-07T08:55:08;16.90;46.80
67899;DHT22;54699;51.796;10.956;2022-12-07T08:57:37;17.00;44.60
67899;DHT22;54699;51.796;10.956;2022-12-07T09:00:13;17.10;44.80
67899;DHT22;54699;51.796;10.956;2022-12-07T09:02:50;17.10;44.90
67899;DHT22;54699;51.796;10.956;2022-12-07T09:05:19;16.90;44.40
67899;DHT22;54699;51.796;10.956;2022-12-07T09:07:48;17.00;44.40
67899;DHT22;54699;51.796;10.956;2022-12-07T09:10:18;17.00;45.10
67899;DHT22;54699;51.796;10.956;2022-12-07T09:12:50;16.90;46.20
67899;DHT22;54699;51.796;10.956;2022-12-07T09:15:19;16.90;46.30
67899;DHT22;54699;51.796;10.956;2022-12-07T09:17:46;17.00;46.40
67899;DHT22;54699;51.796;10.956;2022-12-07T09:20:13;17.10;46.00
67899;DHT22;54699;51.796;10.956;2022-12-07T09:22:40;17.10;46.20
67899;DHT22;54699;51.796;10.956;2022-12-07T09:25:07;17.20;46.10
67899;DHT22;54699;51.796;10.956;2022-12-07T09:27:37;17.20;46.10
67899;DHT22;54699;51.796;10.956;2022-12-07T09:30:04;17.20;46.10
67899;DHT22;54699;51.796;10.956;2022-12-07T09:32:34;17.10;46.10
67899;DHT22;54699;51.796;10.956;2022-12-07T09:35:04;17.10;46.20
67899;DHT22;54699;51.796;10.956;2022-12-07T09:37:33;17.00;46.30
67899;DHT22;54699;51.796;10.956;2022-12-07T09:40:01;16.90;46.20
67899;DHT22;54699;51.796;10.956;2022-12-07T09:42:29;16.80;46.50
67899;DHT22;54699;51.796;10.956;2022-12-07T09:45:00;16.90;46.60
67899;DHT22;54699;51.796;10.956;2022-12-07T09:47:31;17.00;46.80
67899;DHT22;54699;51.796;10.956;2022-12-07T09:50:03;17.00;46.80
67899;DHT22;54699;51.796;10.956;2022-12-07T09:52:33;17.00;46.60
67899;DHT22;54699;51.796;10.956;2022-12-07T09:55:01;17.00;46.60
67899;DHT22;54699;51.796;10.956;2022-12-07T09:57:29;17.00;46.30
67899;DHT22;54699;51.796;10.956;2022-12-07T10:00:00;17.00;46.10
67899;DHT22;54699;51.796;10.956;2022-12-07T10:02:35;17.00;45.90
67899;DHT22;54699;51.796;10.956;2022-12-07T10:05:06;16.90;46.70
67899;DHT22;54699;51.796;10.956;2022-12-07T10:07:37;17.00;46.70
67899;DHT22;54699;51.796;10.956;2022-12-07T10:10:09;17.00;46.60
67899;DHT22;54699;51.796;10.956;2022-12-07T10:12:52;17.00;46.50
67899;DHT22;54699;51.796;10.956;2022-12-07T10:15:21;17.10;46.70
67899;DHT22;54699;51.796;10.956;2022-12-07T10:17:48;17.10;46.60
67899;DHT22;54699;51.796;10.956;2022-12-07T10:20:20;17.00;46.30
67899;DHT22;54699;51.796;10.956;2022-12-07T10:22:57;16.90;46.40
67899;DHT22;54699;51.796;10.956;2022-12-07T10:25:29;17.00;46.30
67899;DHT22;54699;51.796;10.956;2022-12-07T10:30:49;17.00;46.40
67899;DHT22;54699;51.796;10.956;2022-12-07T10:33:28;17.00;46.50
67899;DHT22;54699;51.796;10.956;2022-12-07T10:36:15;17.10;46.30
67899;DHT22;54699;51.796;10.956;2022-12-07T10:38:46;17.10;46.40
67899;DHT22;54699;51.796;10.956;2022-12-07T10:41:17;17.20;46.20
67899;DHT22;54699;51.796;10.956;2022-12-07T10:43:46;17.30;46.20
67899;DHT22;54699;51.796;10.956;2022-12-07T10:46:27;17.40;45.70
67899;DHT22;54699;51.796;10.956;2022-12-07T10:49:08;17.40;44.20
67899;DHT22;54699;51.796;10.956;2022-12-07T10:51:56;17.40;44.90
67899;DHT22;54699;51.796;10.956;2022-12-07T10:54:38;17.50;44.20
67899;DHT22;54699;51.796;10.956;2022-12-07T10:57:20;17.60;44.00
67899;DHT22;54699;51.796;10.956;2022-12-07T11:00:00;17.60;43.50
67899;DHT22;54699;51.796;10.956;2022-12-07T11:02:51;17.70;43.60
67899;DHT22;54699;51.796;10.956;2022-12-07T11:05:36;17.80;43.00
67899;DHT22;54699;51.796;10.956;2022-12-07T11:08:13;17.80;43.70
67899;DHT22;54699;51.796;10.956;2022-12-07T11:10:49;17.90;44.30
67899;DHT22;54699;51.796;10.956;2022-12-07T11:13:27;17.90;44.30
67899;DHT22;54699;51.796;10.956;2022-12-07T11:16:02;17.90;44.90
67899;DHT22;54699;51.796;10.956;2022-12-07T11:18:40;17.90;45.10
67899;DHT22;54699;51.796;10.956;2022-12-07T11:21:19;18.00;44.80
67899;DHT22;54699;51.796;10.956;2022-12-07T11:23:55;18.10;44.60
67899;DHT22;54699;51.796;10.956;2022-12-07T11:26:32;18.10;44.40
67899;DHT22;54699;51.796;10.956;2022-12-07T11:29:14;18.10;44.30
67899;DHT22;54699;51.796;10.956;2022-12-07T11:31:58;18.20;44.50
67899;DHT22;54699;51.796;10.956;2022-12-07T11:34:35;18.10;44.60
67899;DHT22;54699;51.796;10.956;2022-12-07T11:37:07;18.20;44.80
67899;DHT22;54699;51.796;10.956;2022-12-07T11:39:41;18.10;44.80
67899;DHT22;54699;51.796;10.956;2022-12-07T11:42:15;18.20;44.90
67899;DHT22;54699;51.796;10.956;2022-12-07T11:44:49;18.10;45.00
67899;DHT22;54699;51.796;10.956;2022-12-07T11:47:21;18.10;44.90
67899;DHT22;54699;51.796;10.956;2022-12-07T11:49:54;18.10;45.10
67899;DHT22;54699;51.796;10.956;2022-12-07T11:52:25;18.20;45.00
67899;DHT22;54699;51.796;10.956;2022-12-07T11:55:00;18.20;45.20
67899;DHT22;54699;51.796;10.956;2022-12-07T11:57:32;18.30;45.40
67899;DHT22;54699;51.796;10.956;2022-12-07T12:00:12;18.30;45.10
67899;DHT22;54699;51.796;10.956;2022-12-07T12:02:43;18.40;45.00
67899;DHT22;54699;51.796;10.956;2022-12-07T12:05:17;18.40;44.80
67899;DHT22;54699;51.796;10.956;2022-12-07T12:07:48;18.40;44.30
67899;DHT22;54699;51.796;10.956;2022-12-07T12:10:23;18.40;44.10
67899;DHT22;54699;51.796;10.956;2022-12-07T12:15:52;18.40;44.60
67899;DHT22;54699;51.796;10.956;2022-12-07T12:18:36;18.40;44.70
67899;DHT22;54699;51.796;10.956;2022-12-07T12:21:18;18.50;44.80
67899;DHT22;54699;51.796;10.956;2022-12-07T12:23:50;18.40;44.60
67899;DHT22;54699;51.796;10.956;2022-12-07T12:26:28;18.40;44.80
67899;DHT22;54699;51.796;10.956;2022-12-07T12:29:01;18.40;44.40
67899;DHT22;54699;51.796;10.956;2022-12-07T12:31:32;18.50;44.60
67899;DHT22;54699;51.796;10.956;2022-12-07T12:34:03;18.60;45.00
67899;DHT22;54699;51.796;10.956;2022-12-07T12:36:44;18.50;45.10
67899;DHT22;54699;51.796;10.956;2022-12-07T12:39:13;18.70;45.30
67899;DHT22;54699;51.796;10.956;2022-12-07T12:41:56;18.70;45.10
67899;DHT22;54699;51.796;10.956;2022-12-07T12:47:52;18.70;44.60
67899;DHT22;54699;51.796;10.956;2022-12-07T12:50:24;18.60;44.80
67899;DHT22;54699;51.796;10.956;2022-12-07T12:52:57;18.70;44.70
67899;DHT22;54699;51.796;10.956;2022-12-07T12:58:37;18.70;45.20
67899;DHT22;54699;51.796;10.956;2022-12-07T13:04:14;18.60;43.40
67899;DHT22;54699;51.796;10.956;2022-12-07T13:06:47;18.60;42.10
67899;DHT22;54699;51.796;10.956;2022-12-07T13:09:19;18.40;38.90
67899;DHT22;54699;51.796;10.956;2022-12-07T13:11:49;18.30;38.70
67899;DHT22;54699;51.796;10.956;2022-12-07T13:23:22;17.80;41.00
67899;DHT22;54699;51.796;10.956;2022-12-07T13:25:54;17.80;39.70
67899;DHT22;54699;51.796;10.956;2022-12-07T13:28:26;17.90;38.70
67899;DHT22;54699;51.796;10.956;2022-12-07T13:31:11;17.90;39.80
67899;DHT22;54699;51.796;10.956;2022-12-07T13:33:42;17.90;39.80
67899;DHT22;54699;51.796;10.956;2022-12-07T13:36:12;18.00;40.70
67899;DHT22;54699;51.796;10.956;2022-12-07T13:38:49;17.90;40.80
67899;DHT22;54699;51.796;10.956;2022-12-07T13:41:18;17.90;40.90
67899;DHT22;54699;51.796;10.956;2022-12-07T13:43:50;18.00;41.50
67899;DHT22;54699;51.796;10.956;2022-12-07T13:46:23;17.90;41.50
67899;DHT22;54699;51.796;10.956;2022-12-07T13:48:56;18.00;42.10
67899;DHT22;54699;51.796;10.956;2022-12-07T13:51:24;18.00;42.60
67899;DHT22;54699;51.796;10.956;2022-12-07T13:53:53;18.00;42.60
67899;DHT22;54699;51.796;10.956;2022-12-07T13:56:22;18.00;42.70
67899;DHT22;54699;51.796;10.956;2022-12-07T13:58:54;18.10;43.70
67899;DHT22;54699;51.796;10.956;2022-12-07T14:01:23;18.00;43.70
67899;DHT22;54699;51.796;10.956;2022-12-07T14:03:51;18.00;43.50
67899;DHT22;54699;51.796;10.956;2022-12-07T14:06:25;18.00;42.60
67899;DHT22;54699;51.796;10.956;2022-12-07T14:09:09;18.00;43.60
67899;DHT22;54699;51.796;10.956;2022-12-07T14:11:44;17.90;43.10
67899;DHT22;54699;51.796;10.956;2022-12-07T14:14:13;17.90;43.40
67899;DHT22;54699;51.796;10.956;2022-12-07T14:16:54;17.90;43.50
67899;DHT22;54699;51.796;10.956;2022-12-07T14:19:46;17.80;44.60
67899;DHT22;54699;51.796;10.956;2022-12-07T14:22:27;17.70;42.80
67899;DHT22;54699;51.796;10.956;2022-12-07T14:24:58;17.70;43.30
67899;DHT22;54699;51.796;10.956;2022-12-07T14:27:31;17.60;43.70
67899;DHT22;54699;51.796;10.956;2022-12-07T14:30:00;17.60;43.50
67899;DHT22;54699;51.796;10.956;2022-12-07T14:32:29;17.60;44.50
67899;DHT22;54699;51.796;10.956;2022-12-07T14:34:57;17.60;45.00
67899;DHT22;54699;51.796;10.956;2022-12-07T14:37:26;17.60;44.60
67899;DHT22;54699;51.796;10.956;2022-12-07T14:39:54;17.60;45.10
67899;DHT22;54699;51.796;10.956;2022-12-07T14:42:22;17.60;44.30
67899;DHT22;54699;51.796;10.956;2022-12-07T14:44:54;17.50;44.00
67899;DHT22;54699;51.796;10.956;2022-12-07T14:47:23;17.50;44.80
67899;DHT22;54699;51.796;10.956;2022-12-07T14:49:52;17.50;44.50
67899;DHT22;54699;51.796;10.956;2022-12-07T14:52:19;17.40;44.40
67899;DHT22;54699;51.796;10.956;2022-12-07T14:54:49;17.40;44.80
67899;DHT22;54699;51.796;10.956;2022-12-07T14:57:18;17.30;44.70
67899;DHT22;54699;51.796;10.956;2022-12-07T14:59:45;17.40;45.00
67899;DHT22;54699;51.796;10.956;2022-12-07T15:02:12;17.40;45.00
67899;DHT22;54699;51.796;10.956;2022-12-07T15:04:39;17.30;45.10
67899;DHT22;54699;51.796;10.956;2022-12-07T15:07:10;17.30;44.90
67899;DHT22;54699;51.796;10.956;2022-12-07T15:09:42;17.30;45.10
67899;DHT22;54699;51.796;10.956;2022-12-07T15:12:08;17.30;45.10
67899;DHT22;54699;51.796;10.956;2022-12-07T15:14:35;17.30;45.20
67899;DHT22;54699;51.796;10.956;2022-12-07T15:17:02;17.20;45.40
67899;DHT22;54699;51.796;10.956;2022-12-07T15:19:29;17.20;45.00
67899;DHT22;54699;51.796;10.956;2022-12-07T15:21:56;17.10;44.70
67899;DHT22;54699;51.796;10.956;2022-12-07T15:24:26;17.10;45.20
67899;DHT22;54699;51.796;10.956;2022-12-07T15:26:53;17.10;45.30
67899;DHT22;54699;51.796;10.956;2022-12-07T15:29:20;17.20;45.30
67899;DHT22;54699;51.796;10.956;2022-12-07T15:31:48;17.10;45.30
67899;DHT22;54699;51.796;10.956;2022-12-07T15:34:15;17.20;45.30
67899;DHT22;54699;51.796;10.956;2022-12-07T15:36:42;17.20;45.00
67899;DHT22;54699;51.796;10.956;2022-12-07T15:39:09;17.10;45.00
67899;DHT22;54699;51.796;10.956;2022-12-07T15:41:38;17.00;49.20
67899;DHT22;54699;51.796;10.956;2022-12-07T15:44:05;17.10;49.00
67899;DHT22;54699;51.796;10.956;2022-12-07T15:46:49;17.10;48.00
67899;DHT22;54699;51.796;10.956;2022-12-07T15:49:17;17.10;46.60
67899;DHT22;54699;51.796;10.956;2022-12-07T15:51:45;17.10;46.20
67899;DHT22;54699;51.796;10.956;2022-12-07T15:54:18;17.10;47.10
67899;DHT22;54699;51.796;10.956;2022-12-07T15:56:48;17.10;46.30
67899;DHT22;54699;51.796;10.956;2022-12-07T15:59:15;17.00;46.80
67899;DHT22;54699;51.796;10.956;2022-12-07T16:01:42;17.10;46.50
67899;DHT22;54699;51.796;10.956;2022-12-07T16:04:09;17.00;46.90